createdAt,value
2023-04-15T00:01:43.133Z,71.99
2023-04-15T00:06:55.082Z,71.09
2023-04-15T00:12:03.812Z,70.66
2023-04-15T00:17:11.503Z,71.10
2023-04-15T00:22:20.026Z,70.76
2023-04-15T00:27:27.906Z,71.07
2023-04-15T00:32:35.704Z,70.65
2023-04-15T00:37:44.207Z,70.11
2023-04-15T00:42:53.857Z,70.16
2023-04-15T00:53:17.120Z,70.64
2023-04-15T00:58:25.596Z,70.91
2023-04-15T01:03:33.831Z,70.68
2023-04-15T01:08:41.785Z,70.76
2023-04-15T01:13:49.950Z,70.91
2023-04-15T01:18:57.616Z,70.81
2023-04-15T01:24:09.518Z,71.16
2023-04-15T01:29:16.932Z,70.67
2023-04-15T01:34:25.081Z,70.83
2023-04-15T01:39:32.531Z,70.41
2023-04-15T01:44:40.175Z,70.53
2023-04-15T01:49:47.598Z,70.75
2023-04-15T01:54:55.519Z,70.59
2023-04-15T02:00:02.852Z,70.29
2023-04-15T02:05:11.587Z,70.41
2023-04-15T02:10:19.454Z,70.73
2023-04-15T02:15:26.978Z,70.83
2023-04-15T02:20:35.482Z,70.85
2023-04-15T02:25:43.514Z,70.98
2023-04-15T02:31:02.480Z,70.24
2023-04-15T02:36:12.153Z,70.92
2023-04-15T02:41:20.693Z,71.22
2023-04-15T02:46:28.543Z,70.86
2023-04-15T02:51:36.002Z,70.99
2023-04-15T02:56:43.441Z,71.23
2023-04-15T03:02:43.396Z,71.05
2023-04-15T03:08:08.966Z,71.49
2023-04-15T03:13:16.876Z,71.38
2023-04-15T03:18:24.478Z,71.40
2023-04-15T03:23:32.487Z,71.40
2023-04-15T03:28:40.520Z,71.55
2023-04-15T03:33:48.197Z,71.95
2023-04-15T03:38:56.605Z,72.93
2023-04-15T03:44:04.282Z,73.26
2023-04-15T03:49:12.713Z,73.28
2023-04-15T03:54:20.205Z,73.81
2023-04-15T03:59:27.967Z,74.32
2023-04-15T04:04:35.508Z,75.03
2023-04-15T04:09:43.253Z,75.74
2023-04-15T04:14:50.887Z,75.92
2023-04-15T04:19:58.579Z,75.72
2023-04-15T04:25:07.448Z,76.78
2023-04-15T04:30:16.047Z,76.89
2023-04-15T04:35:23.983Z,77.24
2023-04-15T04:40:31.462Z,77.28
2023-04-15T04:45:39.390Z,77.75
2023-04-15T04:50:47.849Z,78.37
2023-04-15T04:55:55.270Z,78.52
2023-04-15T05:01:03.344Z,78.29
2023-04-15T05:06:11.015Z,78.64
2023-04-15T05:11:18.257Z,78.62
2023-04-15T05:16:26.187Z,78.65
2023-04-15T05:21:33.412Z,78.24
2023-04-15T05:26:41.964Z,77.88
2023-04-15T05:31:49.972Z,77.82
2023-04-15T05:36:57.772Z,77.13
2023-04-15T05:42:06.236Z,76.36
2023-04-15T05:47:13.970Z,75.35
2023-04-15T05:52:21.588Z,73.66
2023-04-15T05:57:29.033Z,73.65
2023-04-15T06:02:36.809Z,73.21
2023-04-15T06:07:46.132Z,71.80
2023-04-15T06:12:57.098Z,71.35
2023-04-15T06:18:04.505Z,70.99
2023-04-15T06:23:12.194Z,71.02
2023-04-15T06:28:19.517Z,70.69
2023-04-15T06:33:26.959Z,70.17
2023-04-15T06:38:34.462Z,69.76
2023-04-15T06:43:42.283Z,69.85
2023-04-15T06:48:49.634Z,69.23
2023-04-15T06:53:57.466Z,69.98
2023-04-15T06:59:05.072Z,69.45
2023-04-15T07:04:12.861Z,69.27
2023-04-15T07:09:20.335Z,69.99
2023-04-15T07:14:28.094Z,69.33
2023-04-15T07:19:36.076Z,68.58
2023-04-15T07:24:45.531Z,68.99
2023-04-15T07:29:53.448Z,68.46
2023-04-15T07:35:01.350Z,68.34
2023-04-15T07:40:10.908Z,67.73
2023-04-15T07:45:18.195Z,67.63
2023-04-15T07:54:40.046Z,66.38
2023-04-15T07:59:47.717Z,66.56
2023-04-15T08:04:55.457Z,66.42
2023-04-15T08:10:03.225Z,65.76
2023-04-15T08:15:13.303Z,64.62
2023-04-15T08:20:20.964Z,61.88
2023-04-15T08:25:28.898Z,63.62
2023-04-15T08:30:36.519Z,63.53
2023-04-15T08:35:44.263Z,62.65
2023-04-15T08:40:51.977Z,59.84
2023-04-15T08:46:02.258Z,58.83
2023-04-15T08:51:11.144Z,59.69
2023-04-15T08:56:20.583Z,60.06
2023-04-15T09:01:28.848Z,61.05
2023-04-15T09:06:37.045Z,59.58
2023-04-15T09:11:44.791Z,59.80
2023-04-15T09:17:03.105Z,58.70
2023-04-15T09:22:11.054Z,58.21
2023-04-15T09:27:22.349Z,57.66
2023-04-15T09:32:30.012Z,58.01
2023-04-15T09:37:40.779Z,56.32
2023-04-15T09:43:02.281Z,55.87
2023-04-15T09:48:22.375Z,57.35
2023-04-15T09:53:31.864Z,57.39
2023-04-15T09:58:42.006Z,57.75
2023-04-15T10:03:50.604Z,57.00
2023-04-15T10:08:58.659Z,56.26
2023-04-15T10:14:06.855Z,55.76
2023-04-15T10:19:16.837Z,55.56
2023-04-15T10:24:24.541Z,56.08
2023-04-15T10:29:32.288Z,54.58
2023-04-15T10:34:40.287Z,52.90
2023-04-15T10:39:48.104Z,53.36
2023-04-15T10:44:59.784Z,53.90
2023-04-15T10:50:08.538Z,53.75
2023-04-15T10:55:23.426Z,54.48
2023-04-15T11:00:32.488Z,51.97
2023-04-15T11:05:56.158Z,52.80
2023-04-15T11:11:03.641Z,53.70
2023-04-15T11:16:11.081Z,52.87
2023-04-15T11:21:18.463Z,52.30
2023-04-15T11:26:29.650Z,51.84
2023-04-15T11:31:37.299Z,52.68
2023-04-15T11:36:47.287Z,53.15
2023-04-15T11:41:55.644Z,53.05
2023-04-15T11:47:03.358Z,52.35
2023-04-15T11:52:15.304Z,52.64
2023-04-15T11:57:22.833Z,51.27
2023-04-15T12:02:38.404Z,51.94
2023-04-15T12:08:04.317Z,51.25
2023-04-15T12:13:12.773Z,51.16
2023-04-15T12:18:23.168Z,51.63
2023-04-15T12:23:30.519Z,51.14
2023-04-15T12:28:39.083Z,51.37
2023-04-15T12:33:50.002Z,51.70
2023-04-15T12:38:58.003Z,51.67
2023-04-15T12:44:05.865Z,51.75
2023-04-15T12:49:14.952Z,50.43
2023-04-15T12:54:22.852Z,50.33
2023-04-15T12:59:30.493Z,50.86
2023-04-15T13:04:37.788Z,50.86
2023-04-15T13:09:45.283Z,50.64
2023-04-15T13:14:53.191Z,50.49
2023-04-15T13:20:00.696Z,50.84
2023-04-15T13:25:09.859Z,51.40
2023-04-15T13:30:17.556Z,51.69
2023-04-15T13:35:25.068Z,51.39
2023-04-15T13:40:32.989Z,50.81
2023-04-15T13:45:41.016Z,51.72
2023-04-15T13:50:48.764Z,51.69
2023-04-15T13:55:56.413Z,50.50
2023-04-15T14:01:05.669Z,50.06
2023-04-15T14:06:13.486Z,50.45
2023-04-15T14:11:20.936Z,50.10
2023-04-15T14:16:29.081Z,49.85
2023-04-15T14:21:36.913Z,49.55
2023-04-15T14:26:46.081Z,49.82
2023-04-15T14:32:04.355Z,50.34
2023-04-15T14:37:20.351Z,49.85
2023-04-15T14:42:28.575Z,49.99
2023-04-15T14:47:36.355Z,50.82
2023-04-15T14:52:43.872Z,50.36
2023-04-15T14:57:51.436Z,51.44
2023-04-15T15:02:59.936Z,51.15
2023-04-15T15:08:07.693Z,51.34
2023-04-15T15:13:15.169Z,51.89
2023-04-15T15:18:22.769Z,52.10
2023-04-15T15:23:30.444Z,53.00
2023-04-15T15:28:38.581Z,53.67
2023-04-15T15:33:46.214Z,53.67
2023-04-15T15:38:54.225Z,54.13
2023-04-15T15:44:01.639Z,54.80
2023-04-15T15:52:56.814Z,55.18
2023-04-15T15:58:04.884Z,55.42
2023-04-15T16:03:12.748Z,54.99
2023-04-15T16:08:21.450Z,54.34
2023-04-15T16:13:29.402Z,54.02
2023-04-15T16:18:36.947Z,53.44
2023-04-15T16:23:44.632Z,53.87
2023-04-15T16:28:52.283Z,54.55
2023-04-15T16:34:00.312Z,55.53
2023-04-15T16:39:07.794Z,56.76
2023-04-15T16:44:15.140Z,57.07
2023-04-15T16:49:22.519Z,57.75
2023-04-15T16:54:30.718Z,58.37
2023-04-15T16:59:39.293Z,58.89
2023-04-15T17:04:46.541Z,59.43
2023-04-15T17:09:54.865Z,59.95
2023-04-15T17:15:02.346Z,61.03
2023-04-15T17:20:10.763Z,61.58
2023-04-15T17:25:18.046Z,62.08
2023-04-15T17:30:25.753Z,62.60
2023-04-15T17:35:34.212Z,62.93
2023-04-15T17:40:41.999Z,63.29
2023-04-15T17:45:49.340Z,63.82
2023-04-15T17:54:11.264Z,64.94
2023-04-15T17:59:19.386Z,65.42
2023-04-15T18:04:27.285Z,66.30
2023-04-15T18:09:36.444Z,66.86
2023-04-15T18:14:44.174Z,66.76
2023-04-15T18:19:51.962Z,67.21
2023-04-15T18:25:04.308Z,67.04
2023-04-15T18:30:13.725Z,68.01
2023-04-15T18:35:22.161Z,68.63
2023-04-15T18:40:29.784Z,68.94
2023-04-15T18:45:37.298Z,69.72
2023-04-15T18:53:31.662Z,70.61
2023-04-15T18:59:09.329Z,71.04
2023-04-15T19:04:12.527Z,71.34
2023-04-15T19:09:20.221Z,71.33
2023-04-15T19:14:27.610Z,71.90
2023-04-15T19:19:34.932Z,72.18
2023-04-15T19:24:42.360Z,72.29
2023-04-15T19:29:50.116Z,72.67
2023-04-15T19:34:57.811Z,72.80
2023-04-15T19:40:05.605Z,72.69
2023-04-15T19:45:13.849Z,72.72
2023-04-15T19:50:26.786Z,72.99
2023-04-15T19:55:34.445Z,73.06
2023-04-15T20:00:42.276Z,73.65
2023-04-15T20:05:50.065Z,74.17
2023-04-15T20:10:58.408Z,74.55
2023-04-15T20:16:08.002Z,74.68
2023-04-15T20:21:15.980Z,74.86
2023-04-15T20:26:25.028Z,74.96
2023-04-15T20:31:34.298Z,75.35
2023-04-15T20:36:41.793Z,76.42
2023-04-15T20:41:50.961Z,76.49
2023-04-15T20:46:58.508Z,76.32
2023-04-15T20:52:08.089Z,76.47
2023-04-15T20:57:16.930Z,76.34
2023-04-15T21:02:25.592Z,76.29
2023-04-15T21:07:33.467Z,76.64
2023-04-15T21:12:41.395Z,76.33
2023-04-15T21:17:48.957Z,76.89
2023-04-15T21:22:56.243Z,77.61
2023-04-15T21:28:04.511Z,78.20
2023-04-15T21:33:12.014Z,78.57
2023-04-15T21:38:20.796Z,78.53
2023-04-15T21:43:30.336Z,79.48
2023-04-15T21:48:38.016Z,79.89
2023-04-15T21:53:45.757Z,80.46
2023-04-15T21:58:57.052Z,81.07
2023-04-15T22:04:06.153Z,81.66
2023-04-15T22:09:14.488Z,82.03
2023-04-15T22:14:22.222Z,82.50
2023-04-15T22:19:30.328Z,83.76
2023-04-15T22:24:40.554Z,83.98
2023-04-15T22:29:48.195Z,83.95
2023-04-15T22:34:55.683Z,83.82
2023-04-15T22:40:03.604Z,83.52
2023-04-15T22:45:13.308Z,83.95
2023-04-15T22:50:21.194Z,84.75
2023-04-15T22:55:28.557Z,85.31
2023-04-15T23:00:36.402Z,85.68
2023-04-15T23:05:45.960Z,85.85
2023-04-15T23:10:53.884Z,85.78
2023-04-15T23:16:01.797Z,85.62
2023-04-15T23:21:09.468Z,85.65
2023-04-15T23:26:16.958Z,86.03
2023-04-15T23:31:24.891Z,86.77
2023-04-15T23:36:33.368Z,87.18
2023-04-15T23:41:41.508Z,87.03
2023-04-15T23:52:38.208Z,86.47
2023-04-15T23:57:45.938Z,86.66
